Marble, Pennsylvania
Current Conditions -  °F | °C
As of 12:15 PM on Thursday 18 Dec 2014 (Local Time) from KFKL Reporting Station
Overcast Overcast  
Wind Chill: -8°   Ceiling: 800
Heat Index: -3°   Visibility: 10mi
Dew Point: -5°   Wind: 8mph
Humidity: 86%   Direction: 260°W
Pressure: 30.13"   Gusts: 16mph
Location:  41.34°N, 79.44°W
Report Text: KFKL 181715Z AUTO 26007G14KT 10SM OVC008 M03/M05 A3013 RMK AO1
Loading
Personal Weather Stations






























Interactive Weather Map New forecast layout! Learn more

10-Day Weather Forecast

Advertisements
Track Severe Weather on mobile